createdAt,value
2023-02-02T00:02:26.785Z,7.90
2023-02-02T00:12:31.488Z,4.97
2023-02-02T00:22:35.701Z,7.07
2023-02-02T00:32:37.966Z,7.10
2023-02-02T00:42:40.142Z,7.63
2023-02-02T00:52:44.519Z,9.40
2023-02-02T01:02:51.451Z,8.97
2023-02-02T01:12:55.910Z,8.97
2023-02-02T01:22:59.109Z,7.50
2023-02-02T01:33:03.460Z,7.33
2023-02-02T01:43:22.424Z,6.97
2023-02-02T01:53:26.816Z,7.00
2023-02-02T02:03:37.272Z,6.97
2023-02-02T02:14:03.707Z,6.20
2023-02-02T02:24:34.087Z,7.17
2023-02-02T02:34:41.624Z,5.83
2023-02-02T02:44:44.286Z,6.70
2023-02-02T02:54:52.290Z,5.50
2023-02-02T03:05:20.342Z,7.27
2023-02-02T03:15:27.413Z,7.27
2023-02-02T03:25:32.049Z,7.97
2023-02-02T03:35:37.520Z,9.57
2023-02-02T03:45:46.332Z,8.00
2023-02-02T03:55:52.902Z,8.07
2023-02-02T04:05:57.456Z,6.30
2023-02-02T04:16:00.269Z,6.30
2023-02-02T04:26:07.194Z,6.93
2023-02-02T04:36:09.291Z,7.50
2023-02-02T04:46:11.559Z,5.37
2023-02-02T04:56:19.394Z,5.80
2023-02-02T05:06:21.414Z,5.50
2023-02-02T05:16:24.102Z,5.13
2023-02-02T05:26:26.992Z,4.67
2023-02-02T05:36:29.307Z,3.97
2023-02-02T05:46:31.681Z,3.93
2023-02-02T05:56:36.149Z,3.80
2023-02-02T06:06:44.297Z,4.20
2023-02-02T06:16:49.091Z,4.87
2023-02-02T06:26:53.382Z,4.00
2023-02-02T06:36:55.680Z,5.23
2023-02-02T06:46:57.668Z,3.77
2023-02-02T06:56:59.827Z,5.27
2023-02-02T07:07:02.311Z,5.20
2023-02-02T07:17:06.553Z,4.47
2023-02-02T07:27:08.564Z,6.17
2023-02-02T07:37:10.872Z,6.17
2023-02-02T07:47:20.162Z,5.30
2023-02-02T07:57:22.356Z,5.40
2023-02-02T08:07:26.638Z,6.27
2023-02-02T08:17:31.714Z,5.50
2023-02-02T08:27:37.870Z,5.67
2023-02-02T08:37:44.850Z,4.27
2023-02-02T08:47:47.056Z,3.97
2023-02-02T08:57:52.354Z,4.10
2023-02-02T09:07:59.648Z,3.83
2023-02-02T09:18:04.288Z,4.20
2023-02-02T09:28:14.276Z,5.10
2023-02-02T09:38:19.535Z,4.90
2023-02-02T09:48:45.210Z,5.77
2023-02-02T09:58:54.864Z,5.80
2023-02-02T10:09:22.900Z,6.60
2023-02-02T10:19:31.000Z,5.53
2023-02-02T10:29:59.940Z,5.93
2023-02-02T10:40:27.476Z,5.80
2023-02-02T10:50:32.477Z,5.80
2023-02-02T11:00:51.813Z,4.57
2023-02-02T11:10:55.488Z,3.70
2023-02-02T11:21:00.797Z,4.60
2023-02-02T11:31:07.822Z,5.23
2023-02-02T11:41:13.297Z,5.87
2023-02-02T11:51:25.351Z,7.33
2023-02-02T12:01:29.730Z,7.43
2023-02-02T12:11:58.202Z,6.27
2023-02-02T12:22:03.322Z,6.67
2023-02-02T12:32:35.023Z,5.97
2023-02-02T12:42:56.021Z,7.20
2023-02-02T12:53:04.745Z,5.93
2023-02-02T13:03:30.684Z,4.77
2023-02-02T13:13:41.680Z,5.37
2023-02-02T13:23:52.621Z,3.50
2023-02-02T13:34:16.144Z,4.03
2023-02-02T13:44:24.693Z,3.77
2023-02-02T13:54:58.370Z,4.03
2023-02-02T14:05:04.257Z,3.70
2023-02-02T14:15:07.363Z,3.93
2023-02-02T14:25:40.582Z,3.03
2023-02-02T14:35:46.697Z,3.53
2023-02-02T14:46:22.506Z,3.37
2023-02-02T14:56:50.461Z,2.90
2023-02-02T15:06:55.840Z,3.70
2023-02-02T15:17:12.736Z,3.03
2023-02-02T15:27:23.296Z,3.73
2023-02-02T15:37:36.181Z,1.27
2023-02-02T15:47:42.485Z,1.70
2023-02-02T15:57:47.786Z,1.83
2023-02-02T16:08:03.688Z,2.80
2023-02-02T16:18:15.023Z,2.90
2023-02-02T16:28:27.331Z,2.50
2023-02-02T16:38:39.741Z,2.10
2023-02-02T16:48:46.947Z,2.00
2023-02-02T16:58:49.055Z,2.10
2023-02-02T17:08:51.301Z,1.90
2023-02-02T17:18:55.680Z,3.13
2023-02-02T17:29:00.811Z,2.70
2023-02-02T17:39:07.980Z,2.50
2023-02-02T17:49:10.855Z,3.80
2023-02-02T17:59:17.381Z,4.00
2023-02-02T18:09:24.576Z,3.63
2023-02-02T18:19:26.833Z,3.70
2023-02-02T18:29:33.542Z,3.60
2023-02-02T18:39:39.890Z,4.53
2023-02-02T18:49:41.985Z,2.67
2023-02-02T18:59:44.457Z,3.47
2023-02-02T19:09:49.356Z,3.53
2023-02-02T19:19:51.688Z,4.00
2023-02-02T19:30:00.505Z,3.13
2023-02-02T19:40:16.403Z,2.90
2023-02-02T19:50:24.535Z,3.20
2023-02-02T20:00:29.368Z,3.00
2023-02-02T20:10:37.787Z,3.50
2023-02-02T20:20:44.882Z,2.90
2023-02-02T20:30:49.603Z,2.83
2023-02-02T20:40:52.316Z,3.47
2023-02-02T20:50:54.692Z,4.00
2023-02-02T21:00:56.831Z,3.73
2023-02-02T21:11:01.949Z,3.17
2023-02-02T21:21:09.055Z,2.83
2023-02-02T21:31:13.085Z,4.20
2023-02-02T21:41:16.902Z,3.27
2023-02-02T21:51:29.980Z,3.93
2023-02-02T22:01:39.920Z,4.37
2023-02-02T22:11:59.411Z,4.70
2023-02-02T22:22:13.892Z,4.90
2023-02-02T22:32:20.681Z,4.40
2023-02-02T22:42:26.561Z,4.67
2023-02-02T22:52:28.721Z,4.00
2023-02-02T23:02:33.379Z,3.63
2023-02-02T23:12:35.461Z,3.50
2023-02-02T23:22:40.089Z,3.50
2023-02-02T23:32:48.032Z,3.47
2023-02-02T23:42:52.741Z,3.73
2023-02-02T23:52:59.628Z,3.27
